sensor_id;sensor_type;location;lat;lon;timestamp;pressure;altitude;pressure_sealevel;temperature;humidity
72959;BME280;60008;50.826;6.896;2023-05-23T00:02:30;101150.19;;;15.84;100.00
72959;BME280;60008;50.826;6.896;2023-05-23T00:05:22;101141.50;;;15.82;100.00
72959;BME280;60008;50.826;6.896;2023-05-23T00:08:06;101148.16;;;15.86;100.00
72959;BME280;60008;50.826;6.896;2023-05-23T00:10:57;101145.84;;;15.68;100.00
72959;BME280;60008;50.826;6.896;2023-05-23T00:13:42;101153.69;;;15.70;100.00
72959;BME280;60008;50.826;6.896;2023-05-23T00:16:34;101148.78;;;15.59;100.00
72959;BME280;60008;50.826;6.896;2023-05-23T00:19:32;101151.81;;;15.56;100.00
72959;BME280;60008;50.826;6.896;2023-05-23T00:22:26;101157.00;;;15.57;100.00
72959;BME280;60008;50.826;6.896;2023-05-23T00:25:11;101152.38;;;15.51;100.00
72959;BME280;60008;50.826;6.896;2023-05-23T00:28:03;101157.44;;;15.46;100.00
72959;BME280;60008;50.826;6.896;2023-05-23T00:30:49;101160.44;;;15.43;100.00
72959;BME280;60008;50.826;6.896;2023-05-23T00:33:40;101164.75;;;15.44;100.00
72959;BME280;60008;50.826;6.896;2023-05-23T00:36:25;101162.91;;;15.44;100.00
72959;BME280;60008;50.826;6.896;2023-05-23T00:39:16;101161.63;;;15.40;100.00
72959;BME280;60008;50.826;6.896;2023-05-23T00:42:10;101164.66;;;15.37;100.00
72959;BME280;60008;50.826;6.896;2023-05-23T00:45:02;101162.06;;;15.29;100.00
72959;BME280;60008;50.826;6.896;2023-05-23T00:47:54;101167.28;;;15.23;100.00
72959;BME280;60008;50.826;6.896;2023-05-23T00:50:46;101172.00;;;15.21;100.00
72959;BME280;60008;50.826;6.896;2023-05-23T00:53:37;101182.44;;;15.08;100.00
72959;BME280;60008;50.826;6.896;2023-05-23T00:56:29;101185.47;;;15.05;100.00
72959;BME280;60008;50.826;6.896;2023-05-23T00:59:15;101176.34;;;14.99;100.00
72959;BME280;60008;50.826;6.896;2023-05-23T01:02:07;101171.84;;;15.00;100.00
72959;BME280;60008;50.826;6.896;2023-05-23T01:04:54;101168.63;;;15.04;100.00
72959;BME280;60008;50.826;6.896;2023-05-23T01:07:46;101174.59;;;15.06;100.00
72959;BME280;60008;50.826;6.896;2023-05-23T01:10:39;101181.63;;;15.07;100.00
72959;BME280;60008;50.826;6.896;2023-05-23T01:13:39;101172.00;;;15.21;100.00
72959;BME280;60008;50.826;6.896;2023-05-23T01:16:46;101174.72;;;15.35;100.00
72959;BME280;60008;50.826;6.896;2023-05-23T01:19:39;101163.94;;;15.43;100.00
72959;BME280;60008;50.826;6.896;2023-05-23T01:22:40;101171.78;;;15.45;100.00
72959;BME280;60008;50.826;6.896;2023-05-23T01:25:47;101179.16;;;15.43;100.00
72959;BME280;60008;50.826;6.896;2023-05-23T01:28:54;101180.50;;;15.39;100.00
72959;BME280;60008;50.826;6.896;2023-05-23T01:31:48;101186.03;;;15.37;100.00
72959;BME280;60008;50.826;6.896;2023-05-23T01:34:37;101181.13;;;15.41;100.00
72959;BME280;60008;50.826;6.896;2023-05-23T01:37:29;101186.88;;;15.38;100.00
72959;BME280;60008;50.826;6.896;2023-05-23T01:40:14;101174.16;;;15.40;100.00
72959;BME280;60008;50.826;6.896;2023-05-23T01:43:06;101174.81;;;15.19;100.00
72959;BME280;60008;50.826;6.896;2023-05-23T01:45:52;101182.97;;;15.26;100.00
72959;BME280;60008;50.826;6.896;2023-05-23T01:48:46;101186.69;;;15.17;100.00
72959;BME280;60008;50.826;6.896;2023-05-23T01:51:31;101193.09;;;15.30;100.00
72959;BME280;60008;50.826;6.896;2023-05-23T01:54:23;101190.13;;;15.25;100.00
72959;BME280;60008;50.826;6.896;2023-05-23T01:57:16;101192.94;;;15.32;100.00
72959;BME280;60008;50.826;6.896;2023-05-23T02:00:03;101195.88;;;15.37;100.00
72959;BME280;60008;50.826;6.896;2023-05-23T02:02:56;101193.78;;;15.32;100.00
72959;BME280;60008;50.826;6.896;2023-05-23T02:05:42;101210.44;;;15.34;100.00
72959;BME280;60008;50.826;6.896;2023-05-23T02:08:33;101209.44;;;15.35;100.00
72959;BME280;60008;50.826;6.896;2023-05-23T02:11:19;101200.31;;;15.30;100.00
72959;BME280;60008;50.826;6.896;2023-05-23T02:14:10;101195.25;;;15.35;100.00
72959;BME280;60008;50.826;6.896;2023-05-23T02:16:56;101192.44;;;15.28;100.00
72959;BME280;60008;50.826;6.896;2023-05-23T02:19:55;101190.31;;;15.24;100.00
72959;BME280;60008;50.826;6.896;2023-05-23T02:22:40;101197.63;;;15.30;100.00
72959;BME280;60008;50.826;6.896;2023-05-23T02:25:31;101206.81;;;15.27;100.00
72959;BME280;60008;50.826;6.896;2023-05-23T02:28:16;101198.63;;;15.29;100.00
72959;BME280;60008;50.826;6.896;2023-05-23T02:31:07;101205.09;;;15.34;100.00
72959;BME280;60008;50.826;6.896;2023-05-23T02:33:59;101197.56;;;15.15;100.00
72959;BME280;60008;50.826;6.896;2023-05-23T02:36:51;101203.69;;;15.24;100.00
72959;BME280;60008;50.826;6.896;2023-05-23T02:39:35;101196.56;;;15.16;100.00
72959;BME280;60008;50.826;6.896;2023-05-23T02:42:26;101205.63;;;15.30;100.00
72959;BME280;60008;50.826;6.896;2023-05-23T02:45:18;101202.00;;;15.23;100.00
72959;BME280;60008;50.826;6.896;2023-05-23T02:48:03;101202.25;;;15.13;100.00
72959;BME280;60008;50.826;6.896;2023-05-23T02:50:54;101198.22;;;15.17;100.00
72959;BME280;60008;50.826;6.896;2023-05-23T02:53:39;101205.22;;;15.18;100.00
72959;BME280;60008;50.826;6.896;2023-05-23T02:56:31;101198.97;;;15.26;100.00
72959;BME280;60008;50.826;6.896;2023-05-23T02:59:16;101196.31;;;15.26;100.00
72959;BME280;60008;50.826;6.896;2023-05-23T03:02:07;101199.63;;;15.28;100.00
72959;BME280;60008;50.826;6.896;2023-05-23T03:04:52;101194.63;;;15.25;100.00
72959;BME280;60008;50.826;6.896;2023-05-23T03:07:44;101195.75;;;15.30;100.00
72959;BME280;60008;50.826;6.896;2023-05-23T03:10:29;101198.97;;;15.26;100.00
72959;BME280;60008;50.826;6.896;2023-05-23T03:13:21;101203.50;;;15.25;100.00
72959;BME280;60008;50.826;6.896;2023-05-23T03:16:13;101203.31;;;15.27;100.00
72959;BME280;60008;50.826;6.896;2023-05-23T03:19:05;101202.38;;;15.20;100.00
72959;BME280;60008;50.826;6.896;2023-05-23T03:21:57;101209.91;;;15.16;100.00
72959;BME280;60008;50.826;6.896;2023-05-23T03:24:49;101219.81;;;15.08;100.00
72959;BME280;60008;50.826;6.896;2023-05-23T03:27:34;101220.19;;;15.05;100.00
72959;BME280;60008;50.826;6.896;2023-05-23T03:30:26;101226.03;;;15.00;100.00
72959;BME280;60008;50.826;6.896;2023-05-23T03:33:11;101231.22;;;15.02;100.00
72959;BME280;60008;50.826;6.896;2023-05-23T03:36:03;101228.53;;;15.02;100.00
72959;BME280;60008;50.826;6.896;2023-05-23T03:38:48;101242.94;;;14.93;100.00
72959;BME280;60008;50.826;6.896;2023-05-23T03:41:40;101238.72;;;14.98;100.00
72959;BME280;60008;50.826;6.896;2023-05-23T03:44:26;101240.63;;;14.89;100.00
72959;BME280;60008;50.826;6.896;2023-05-23T03:47:18;101247.56;;;14.99;100.00
72959;BME280;60008;50.826;6.896;2023-05-23T03:50:03;101259.84;;;14.85;100.00
72959;BME280;60008;50.826;6.896;2023-05-23T03:52:55;101272.81;;;14.57;100.00
72959;BME280;60008;50.826;6.896;2023-05-23T03:55:40;101287.59;;;14.68;100.00
72959;BME280;60008;50.826;6.896;2023-05-23T03:58:32;101284.38;;;14.42;100.00
72959;BME280;60008;50.826;6.896;2023-05-23T04:01:17;101301.22;;;14.42;100.00
72959;BME280;60008;50.826;6.896;2023-05-23T04:04:10;101318.41;;;14.40;100.00
72959;BME280;60008;50.826;6.896;2023-05-23T04:06:55;101311.25;;;14.40;100.00
72959;BME280;60008;50.826;6.896;2023-05-23T04:09:46;101319.25;;;14.32;100.00
72959;BME280;60008;50.826;6.896;2023-05-23T04:12:38;101313.72;;;14.25;100.00
72959;BME280;60008;50.826;6.896;2023-05-23T04:15:32;101317.06;;;14.27;100.00
72959;BME280;60008;50.826;6.896;2023-05-23T04:18:26;101317.56;;;14.31;100.00
72959;BME280;60008;50.826;6.896;2023-05-23T04:21:24;101306.72;;;14.24;100.00
72959;BME280;60008;50.826;6.896;2023-05-23T04:24:15;101306.22;;;14.45;100.00
72959;BME280;60008;50.826;6.896;2023-05-23T04:27:01;101306.88;;;14.47;100.00
72959;BME280;60008;50.826;6.896;2023-05-23T04:29:53;101302.38;;;14.48;100.00
72959;BME280;60008;50.826;6.896;2023-05-23T04:32:44;101302.88;;;14.43;100.00
72959;BME280;60008;50.826;6.896;2023-05-23T04:35:36;101308.03;;;14.53;100.00
72959;BME280;60008;50.826;6.896;2023-05-23T04:38:24;101309.22;;;14.42;100.00
72959;BME280;60008;50.826;6.896;2023-05-23T04:41:15;101303.22;;;14.48;100.00
72959;BME280;60008;50.826;6.896;2023-05-23T04:44:08;101309.34;;;14.49;100.00
72959;BME280;60008;50.826;6.896;2023-05-23T04:46:53;101299.50;;;14.57;100.00
72959;BME280;60008;50.826;6.896;2023-05-23T04:49:47;101303.88;;;14.50;100.00
72959;BME280;60008;50.826;6.896;2023-05-23T04:52:32;101313.13;;;14.62;100.00
72959;BME280;60008;50.826;6.896;2023-05-23T04:55:24;101314.19;;;14.53;100.00
72959;BME280;60008;50.826;6.896;2023-05-23T04:58:16;101315.06;;;14.46;100.00
72959;BME280;60008;50.826;6.896;2023-05-23T05:01:07;101307.38;;;14.51;100.00
72959;BME280;60008;50.826;6.896;2023-05-23T05:03:53;101311.03;;;14.50;100.00
72959;BME280;60008;50.826;6.896;2023-05-23T05:06:44;101314.06;;;14.39;100.00
72959;BME280;60008;50.826;6.896;2023-05-23T05:09:31;101310.53;;;14.46;100.00
72959;BME280;60008;50.826;6.896;2023-05-23T05:12:23;101308.88;;;14.45;100.00
72959;BME280;60008;50.826;6.896;2023-05-23T05:15:08;101306.91;;;14.39;100.00
72959;BME280;60008;50.826;6.896;2023-05-23T05:18:06;101313.00;;;14.56;100.00
72959;BME280;60008;50.826;6.896;2023-05-23T05:20:51;101305.66;;;14.58;100.00
72959;BME280;60008;50.826;6.896;2023-05-23T05:23:43;101308.53;;;14.48;100.00
72959;BME280;60008;50.826;6.896;2023-05-23T05:26:28;101305.31;;;14.61;100.00
72959;BME280;60008;50.826;6.896;2023-05-23T05:29:20;101297.50;;;14.51;100.00
72959;BME280;60008;50.826;6.896;2023-05-23T05:32:11;101310.34;;;14.56;100.00
72959;BME280;60008;50.826;6.896;2023-05-23T05:35:03;101305.84;;;14.56;100.00
72959;BME280;60008;50.826;6.896;2023-05-23T05:37:47;101314.50;;;14.58;100.00
72959;BME280;60008;50.826;6.896;2023-05-23T05:40:38;101316.81;;;14.61;100.00
72959;BME280;60008;50.826;6.896;2023-05-23T05:43:25;101328.00;;;14.57;100.00
72959;BME280;60008;50.826;6.896;2023-05-23T05:46:16;101316.03;;;14.53;100.00
72959;BME280;60008;50.826;6.896;2023-05-23T05:49:07;101316.03;;;14.53;100.00
72959;BME280;60008;50.826;6.896;2023-05-23T05:51:55;101319.03;;;14.50;100.00
72959;BME280;60008;50.826;6.896;2023-05-23T05:54:46;101326.47;;;14.62;100.00
72959;BME280;60008;50.826;6.896;2023-05-23T05:57:32;101321.81;;;14.64;100.00
72959;BME280;60008;50.826;6.896;2023-05-23T06:00:24;101327.50;;;14.61;100.00
72959;BME280;60008;50.826;6.896;2023-05-23T06:03:09;101335.84;;;14.58;100.00
72959;BME280;60008;50.826;6.896;2023-05-23T06:06:01;101335.50;;;14.61;100.00
72959;BME280;60008;50.826;6.896;2023-05-23T06:08:52;101340.53;;;14.56;100.00
72959;BME280;60008;50.826;6.896;2023-05-23T06:11:43;101335.19;;;14.56;100.00
72959;BME280;60008;50.826;6.896;2023-05-23T06:14:28;101340.56;;;14.48;100.00
72959;BME280;60008;50.826;6.896;2023-05-23T06:17:20;101332.69;;;14.55;100.00
72959;BME280;60008;50.826;6.896;2023-05-23T06:20:11;101329.31;;;14.61;100.00
72959;BME280;60008;50.826;6.896;2023-05-23T06:23:02;101340.00;;;14.61;100.00
72959;BME280;60008;50.826;6.896;2023-05-23T06:25:49;101338.16;;;14.61;100.00
72959;BME280;60008;50.826;6.896;2023-05-23T06:28:40;101341.97;;;14.75;100.00
72959;BME280;60008;50.826;6.896;2023-05-23T06:31:31;101339.91;;;14.85;100.00
72959;BME280;60008;50.826;6.896;2023-05-23T06:34:22;101343.53;;;14.92;100.00
72959;BME280;60008;50.826;6.896;2023-05-23T06:37:07;101343.09;;;14.80;100.00
72959;BME280;60008;50.826;6.896;2023-05-23T06:39:58;101341.31;;;14.73;100.00
72959;BME280;60008;50.826;6.896;2023-05-23T06:42:44;101351.41;;;14.85;100.00
72959;BME280;60008;50.826;6.896;2023-05-23T06:45:36;101354.25;;;14.84;100.00
72959;BME280;60008;50.826;6.896;2023-05-23T06:48:22;101343.41;;;14.85;100.00
72959;BME280;60008;50.826;6.896;2023-05-23T06:51:14;101346.06;;;14.85;100.00
72959;BME280;60008;50.826;6.896;2023-05-23T06:53:59;101348.09;;;14.83;100.00
72959;BME280;60008;50.826;6.896;2023-05-23T06:56:50;101352.72;;;14.89;100.00
72959;BME280;60008;50.826;6.896;2023-05-23T06:59:35;101369.38;;;15.00;100.00
72959;BME280;60008;50.826;6.896;2023-05-23T07:02:26;101370.22;;;14.92;100.00
72959;BME280;60008;50.826;6.896;2023-05-23T07:05:18;101370.25;;;14.84;100.00
72959;BME280;60008;50.826;6.896;2023-05-23T07:08:10;101372.63;;;14.79;100.00
72959;BME280;60008;50.826;6.896;2023-05-23T07:10:55;101373.75;;;14.84;100.00
72959;BME280;60008;50.826;6.896;2023-05-23T07:13:47;101364.44;;;14.80;100.00
72959;BME280;60008;50.826;6.896;2023-05-23T07:16:38;101357.69;;;15.31;100.00
72959;BME280;60008;50.826;6.896;2023-05-23T07:19:31;101361.69;;;15.35;100.00
72959;BME280;60008;50.826;6.896;2023-05-23T07:22:22;101361.88;;;15.26;100.00
72959;BME280;60008;50.826;6.896;2023-05-23T07:25:07;101358.16;;;15.66;100.00
72959;BME280;60008;50.826;6.896;2023-05-23T07:27:59;101360.88;;;15.58;100.00
72959;BME280;60008;50.826;6.896;2023-05-23T07:30:50;101350.31;;;15.64;100.00
72959;BME280;60008;50.826;6.896;2023-05-23T07:33:35;101354.19;;;15.62;100.00
72959;BME280;60008;50.826;6.896;2023-05-23T07:36:26;101363.63;;;15.72;100.00
72959;BME280;60008;50.826;6.896;2023-05-23T07:39:21;101360.47;;;15.46;100.00
72959;BME280;60008;50.826;6.896;2023-05-23T07:42:08;101362.78;;;15.41;100.00
72959;BME280;60008;50.826;6.896;2023-05-23T07:44:58;101355.81;;;15.63;100.00
72959;BME280;60008;50.826;6.896;2023-05-23T07:47:43;101361.56;;;15.60;100.00
72959;BME280;60008;50.826;6.896;2023-05-23T07:50:36;101365.75;;;15.54;100.00
72959;BME280;60008;50.826;6.896;2023-05-23T07:53:20;101366.81;;;15.06;100.00
72959;BME280;60008;50.826;6.896;2023-05-23T07:56:13;101377.81;;;15.42;100.00
72959;BME280;60008;50.826;6.896;2023-05-23T07:58:58;101364.81;;;15.39;100.00
72959;BME280;60008;50.826;6.896;2023-05-23T08:01:49;101366.84;;;15.68;100.00
72959;BME280;60008;50.826;6.896;2023-05-23T08:04:34;101369.03;;;15.64;100.00
72959;BME280;60008;50.826;6.896;2023-05-23T08:07:26;101370.03;;;15.86;100.00
72959;BME280;60008;50.826;6.896;2023-05-23T08:10:11;101374.19;;;15.66;100.00
72959;BME280;60008;50.826;6.896;2023-05-23T08:13:02;101378.28;;;15.76;100.00
72959;BME280;60008;50.826;6.896;2023-05-23T08:15:50;101378.88;;;15.64;100.00
72959;BME280;60008;50.826;6.896;2023-05-23T08:18:48;101381.50;;;15.41;100.00
72959;BME280;60008;50.826;6.896;2023-05-23T08:21:35;101385.75;;;15.58;100.00
72959;BME280;60008;50.826;6.896;2023-05-23T08:24:26;101386.94;;;15.56;100.00
72959;BME280;60008;50.826;6.896;2023-05-23T08:27:21;101394.31;;;15.76;100.00
72959;BME280;60008;50.826;6.896;2023-05-23T08:30:06;101402.97;;;15.56;100.00
72959;BME280;60008;50.826;6.896;2023-05-23T08:32:59;101401.44;;;15.61;100.00
72959;BME280;60008;50.826;6.896;2023-05-23T08:35:51;101409.88;;;15.42;100.00
72959;BME280;60008;50.826;6.896;2023-05-23T08:38:36;101405.91;;;15.46;100.00
72959;BME280;60008;50.826;6.896;2023-05-23T08:41:29;101410.00;;;15.57;100.00
72959;BME280;60008;50.826;6.896;2023-05-23T08:44:14;101407.72;;;15.68;100.00
72959;BME280;60008;50.826;6.896;2023-05-23T08:47:07;101416.75;;;15.36;100.00
72959;BME280;60008;50.826;6.896;2023-05-23T08:49:54;101425.41;;;15.38;100.00
72959;BME280;60008;50.826;6.896;2023-05-23T08:52:56;101419.66;;;15.27;100.00
72959;BME280;60008;50.826;6.896;2023-05-23T08:55:42;101427.28;;;15.38;100.00
72959;BME280;60008;50.826;6.896;2023-05-23T08:58:34;101431.25;;;15.42;100.00
72959;BME280;60008;50.826;6.896;2023-05-23T09:01:19;101434.44;;;15.37;100.00
72959;BME280;60008;50.826;6.896;2023-05-23T09:04:13;101438.06;;;15.53;100.00
72959;BME280;60008;50.826;6.896;2023-05-23T09:06:59;101444.13;;;15.38;100.00
72959;BME280;60008;50.826;6.896;2023-05-23T09:09:50;101450.69;;;15.28;100.00
72959;BME280;60008;50.826;6.896;2023-05-23T09:12:41;101445.94;;;15.07;100.00
72959;BME280;60008;50.826;6.896;2023-05-23T09:15:34;101450.09;;;15.10;100.00
72959;BME280;60008;50.826;6.896;2023-05-23T09:18:41;101461.59;;;15.10;100.00
72959;BME280;60008;50.826;6.896;2023-05-23T09:21:33;101455.09;;;15.13;100.00
72959;BME280;60008;50.826;6.896;2023-05-23T09:24:33;101457.56;;;15.14;100.00
72959;BME280;60008;50.826;6.896;2023-05-23T09:27:24;101468.13;;;15.08;100.00
72959;BME280;60008;50.826;6.896;2023-05-23T09:30:16;101464.63;;;15.07;100.00
72959;BME280;60008;50.826;6.896;2023-05-23T09:33:02;101470.63;;;15.01;100.00
72959;BME280;60008;50.826;6.896;2023-05-23T09:35:54;101488.06;;;14.57;100.00
72959;BME280;60008;50.826;6.896;2023-05-23T09:38:40;101505.53;;;14.27;100.00
72959;BME280;60008;50.826;6.896;2023-05-23T09:41:33;101515.53;;;14.17;100.00
72959;BME280;60008;50.826;6.896;2023-05-23T09:44:22;101519.69;;;14.27;100.00
72959;BME280;60008;50.826;6.896;2023-05-23T09:47:16;101521.25;;;14.38;100.00
72959;BME280;60008;50.826;6.896;2023-05-23T09:50:03;101527.34;;;14.14;100.00
72959;BME280;60008;50.826;6.896;2023-05-23T09:52:55;101524.81;;;13.89;100.00
72959;BME280;60008;50.826;6.896;2023-05-23T09:55:40;101524.16;;;14.03;100.00
72959;BME280;60008;50.826;6.896;2023-05-23T09:58:32;101535.19;;;14.16;100.00
72959;BME280;60008;50.826;6.896;2023-05-23T10:01:24;101531.72;;;14.23;100.00
72959;BME280;60008;50.826;6.896;2023-05-23T10:04:20;101531.50;;;14.01;100.00
72959;BME280;60008;50.826;6.896;2023-05-23T10:07:12;101536.00;;;14.00;100.00
72959;BME280;60008;50.826;6.896;2023-05-23T10:10:08;101528.53;;;14.12;100.00
72959;BME280;60008;50.826;6.896;2023-05-23T10:12:57;101533.19;;;14.10;100.00
72959;BME280;60008;50.826;6.896;2023-05-23T10:15:58;101516.78;;;13.81;100.00
72959;BME280;60008;50.826;6.896;2023-05-23T10:19:01;101528.22;;;13.65;100.00
72959;BME280;60008;50.826;6.896;2023-05-23T10:21:57;101529.25;;;13.64;100.00
72959;BME280;60008;50.826;6.896;2023-05-23T10:24:44;101509.50;;;13.99;100.00
72959;BME280;60008;50.826;6.896;2023-05-23T10:27:39;101493.56;;;15.34;100.00
72959;BME280;60008;50.826;6.896;2023-05-23T10:30:27;101456.06;;;17.31;100.00
72959;BME280;60008;50.826;6.896;2023-05-23T10:33:19;101459.38;;;16.89;100.00
72959;BME280;60008;50.826;6.896;2023-05-23T10:36:18;101452.72;;;17.58;100.00
72959;BME280;60008;50.826;6.896;2023-05-23T10:39:21;101441.88;;;19.19;100.00
72959;BME280;60008;50.826;6.896;2023-05-23T10:42:16;101448.19;;;18.64;100.00
72959;BME280;60008;50.826;6.896;2023-05-23T10:45:16;101449.59;;;18.60;100.00
72959;BME280;60008;50.826;6.896;2023-05-23T10:48:17;101457.59;;;17.69;100.00
72959;BME280;60008;50.826;6.896;2023-05-23T10:51:11;101453.41;;;19.07;100.00
72959;BME280;60008;50.826;6.896;2023-05-23T10:54:09;101449.94;;;19.19;100.00
72959;BME280;60008;50.826;6.896;2023-05-23T10:57:02;101457.22;;;19.79;100.00
72959;BME280;60008;50.826;6.896;2023-05-23T10:59:55;101470.88;;;17.48;100.00
72959;BME280;60008;50.826;6.896;2023-05-23T11:02:55;101474.16;;;17.14;100.00
72959;BME280;60008;50.826;6.896;2023-05-23T11:05:51;101478.81;;;17.85;100.00
72959;BME280;60008;50.826;6.896;2023-05-23T11:08:43;101475.28;;;18.27;100.00
72959;BME280;60008;50.826;6.896;2023-05-23T11:12:01;101486.19;;;18.68;100.00
72959;BME280;60008;50.826;6.896;2023-05-23T11:14:54;101488.47;;;18.64;100.00
72959;BME280;60008;50.826;6.896;2023-05-23T11:17:55;101497.50;;;18.21;100.00
72959;BME280;60008;50.826;6.896;2023-05-23T11:20:54;101498.66;;;16.59;100.00
72959;BME280;60008;50.826;6.896;2023-05-23T11:23:39;101509.72;;;16.56;100.00
72959;BME280;60008;50.826;6.896;2023-05-23T11:26:33;101508.66;;;16.65;100.00
72959;BME280;60008;50.826;6.896;2023-05-23T11:29:18;101513.56;;;16.31;100.00
72959;BME280;60008;50.826;6.896;2023-05-23T11:32:12;101513.09;;;15.74;100.00
72959;BME280;60008;50.826;6.896;2023-05-23T11:35:08;101518.34;;;15.67;100.00
72959;BME280;60008;50.826;6.896;2023-05-23T11:37:55;101516.53;;;15.90;100.00
72959;BME280;60008;50.826;6.896;2023-05-23T11:40:47;101515.91;;;15.49;100.00
72959;BME280;60008;50.826;6.896;2023-05-23T11:43:32;101516.63;;;15.19;100.00
72959;BME280;60008;50.826;6.896;2023-05-23T11:46:24;101522.34;;;15.16;100.00
72959;BME280;60008;50.826;6.896;2023-05-23T11:49:10;101530.88;;;14.96;100.00
72959;BME280;60008;50.826;6.896;2023-05-23T11:52:03;101529.03;;;15.04;100.00
72959;BME280;60008;50.826;6.896;2023-05-23T11:54:48;101527.34;;;15.11;100.00
72959;BME280;60008;50.826;6.896;2023-05-23T11:57:44;101526.84;;;15.63;100.00
72959;BME280;60008;50.826;6.896;2023-05-23T12:00:42;101520.28;;;15.81;100.00
72959;BME280;60008;50.826;6.896;2023-05-23T12:03:28;101515.63;;;16.06;100.00
72959;BME280;60008;50.826;6.896;2023-05-23T12:06:21;101512.31;;;15.96;100.00
72959;BME280;60008;50.826;6.896;2023-05-23T12:09:15;101514.31;;;16.25;100.00
72959;BME280;60008;50.826;6.896;2023-05-23T12:12:00;101496.53;;;17.06;100.00
72959;BME280;60008;50.826;6.896;2023-05-23T12:15:08;101500.31;;;16.37;100.00
72959;BME280;60008;50.826;6.896;2023-05-23T12:18:14;101504.56;;;16.54;100.00
72959;BME280;60008;50.826;6.896;2023-05-23T12:21:05;101500.56;;;16.88;100.00
72959;BME280;60008;50.826;6.896;2023-05-23T12:23:52;101493.75;;;17.29;100.00
72959;BME280;60008;50.826;6.896;2023-05-23T12:26:57;101497.78;;;16.81;100.00
72959;BME280;60008;50.826;6.896;2023-05-23T12:29:49;101495.47;;;16.78;100.00
72959;BME280;60008;50.826;6.896;2023-05-23T12:32:43;101500.97;;;16.39;100.00
72959;BME280;60008;50.826;6.896;2023-05-23T12:35:35;101493.97;;;16.61;100.00
72959;BME280;60008;50.826;6.896;2023-05-23T12:38:20;101497.16;;;16.79;100.00
72959;BME280;60008;50.826;6.896;2023-05-23T12:41:16;101506.22;;;16.93;100.00
72959;BME280;60008;50.826;6.896;2023-05-23T12:44:08;101507.25;;;16.54;100.00
72959;BME280;60008;50.826;6.896;2023-05-23T12:47:01;101508.25;;;16.08;100.00
72959;BME280;60008;50.826;6.896;2023-05-23T12:49:46;101513.41;;;16.32;100.00
72959;BME280;60008;50.826;6.896;2023-05-23T12:52:39;101513.00;;;16.43;100.00
72959;BME280;60008;50.826;6.896;2023-05-23T12:55:24;101510.25;;;16.51;100.00
72959;BME280;60008;50.826;6.896;2023-05-23T12:58:16;101513.63;;;16.45;100.00
72959;BME280;60008;50.826;6.896;2023-05-23T13:01:08;101505.97;;;16.65;100.00
72959;BME280;60008;50.826;6.896;2023-05-23T13:04:00;101508.44;;;15.98;100.00
72959;BME280;60008;50.826;6.896;2023-05-23T13:06:51;101517.19;;;16.15;100.00
72959;BME280;60008;50.826;6.896;2023-05-23T13:09:36;101517.09;;;16.31;100.00
72959;BME280;60008;50.826;6.896;2023-05-23T13:12:29;101513.34;;;16.40;100.00
72959;BME280;60008;50.826;6.896;2023-05-23T13:15:14;101508.84;;;16.41;100.00
72959;BME280;60008;50.826;6.896;2023-05-23T13:18:06;101516.69;;;16.65;100.00
72959;BME280;60008;50.826;6.896;2023-05-23T13:21:05;101524.44;;;16.75;100.00
72959;BME280;60008;50.826;6.896;2023-05-23T13:23:56;101519.50;;;16.86;100.00
72959;BME280;60008;50.826;6.896;2023-05-23T13:26:48;101523.84;;;17.02;100.00
72959;BME280;60008;50.826;6.896;2023-05-23T13:29:33;101518.13;;;17.05;100.00
72959;BME280;60008;50.826;6.896;2023-05-23T13:32:25;101523.28;;;17.79;100.00
72959;BME280;60008;50.826;6.896;2023-05-23T13:35:10;101510.00;;;17.57;100.00
72959;BME280;60008;50.826;6.896;2023-05-23T13:38:02;101515.34;;;17.13;100.00
72959;BME280;60008;50.826;6.896;2023-05-23T13:40:47;101517.84;;;17.00;100.00
72959;BME280;60008;50.826;6.896;2023-05-23T13:43:39;101515.09;;;17.22;100.00
72959;BME280;60008;50.826;6.896;2023-05-23T13:46:24;101524.63;;;17.25;100.00
72959;BME280;60008;50.826;6.896;2023-05-23T13:49:16;101524.28;;;16.91;100.00
72959;BME280;60008;50.826;6.896;2023-05-23T13:52:00;101525.25;;;17.27;100.00
72959;BME280;60008;50.826;6.896;2023-05-23T13:54:51;101522.56;;;16.60;100.00
72959;BME280;60008;50.826;6.896;2023-05-23T13:57:37;101510.41;;;16.73;100.00
72959;BME280;60008;50.826;6.896;2023-05-23T14:00:28;101514.84;;;16.80;100.00
72959;BME280;60008;50.826;6.896;2023-05-23T14:03:13;101518.25;;;16.74;100.00
72959;BME280;60008;50.826;6.896;2023-05-23T14:06:05;101513.38;;;16.78;100.00
72959;BME280;60008;50.826;6.896;2023-05-23T14:08:51;101513.63;;;17.20;100.00
72959;BME280;60008;50.826;6.896;2023-05-23T14:11:43;101499.19;;;17.21;99.30
72959;BME280;60008;50.826;6.896;2023-05-23T14:14:28;101509.81;;;17.94;100.00
72959;BME280;60008;50.826;6.896;2023-05-23T14:17:26;101517.84;;;18.30;95.18
72959;BME280;60008;50.826;6.896;2023-05-23T14:20:12;101506.22;;;17.66;98.16
72959;BME280;60008;50.826;6.896;2023-05-23T14:23:03;101508.97;;;17.28;100.00
72959;BME280;60008;50.826;6.896;2023-05-23T14:25:48;101507.31;;;17.42;100.00
72959;BME280;60008;50.826;6.896;2023-05-23T14:28:39;101510.28;;;17.33;100.00
72959;BME280;60008;50.826;6.896;2023-05-23T14:31:24;101507.78;;;17.02;100.00
72959;BME280;60008;50.826;6.896;2023-05-23T14:34:15;101503.09;;;17.04;100.00
72959;BME280;60008;50.826;6.896;2023-05-23T14:37:07;101505.84;;;17.25;100.00
72959;BME280;60008;50.826;6.896;2023-05-23T14:39:59;101513.88;;;17.10;100.00
72959;BME280;60008;50.826;6.896;2023-05-23T14:42:44;101505.16;;;16.64;100.00